createdAt,value
2018-07-31T00:00:31.506Z,0.00
2018-07-31T00:01:31.081Z,0.00
2018-07-31T00:02:31.007Z,0.00
2018-07-31T00:03:31.022Z,0.00
2018-07-31T00:04:30.664Z,0.00
2018-07-31T00:05:30.688Z,0.00
2018-07-31T00:06:30.614Z,0.00
2018-07-31T00:07:30.683Z,0.00
2018-07-31T00:08:30.563Z,0.00
2018-07-31T00:09:30.561Z,0.00
2018-07-31T00:10:30.547Z,0.00
2018-07-31T00:11:30.503Z,0.00
2018-07-31T00:12:30.487Z,0.00
2018-07-31T00:13:30.469Z,0.00
2018-07-31T00:16:33.589Z,0.00
2018-07-31T00:17:33.936Z,0.00
2018-07-31T00:19:28.292Z,0.00
2018-07-31T00:20:28.134Z,0.00
2018-07-31T00:23:01.997Z,0.00
2018-07-31T00:24:02.014Z,0.00
2018-07-31T00:26:08.030Z,0.00
2018-07-31T00:27:07.966Z,0.00
2018-07-31T00:29:13.473Z,0.00
2018-07-31T00:30:13.554Z,0.00
2018-07-31T00:31:13.044Z,0.00
2018-07-31T00:32:13.215Z,0.00
2018-07-31T00:33:13.097Z,0.00
2018-07-31T00:34:12.826Z,0.00
2018-07-31T00:35:12.808Z,0.00
2018-07-31T00:36:12.772Z,0.00
2018-07-31T00:37:12.752Z,0.00
2018-07-31T00:38:12.727Z,0.00
2018-07-31T00:39:12.756Z,0.00
2018-07-31T00:40:12.681Z,0.00
2018-07-31T00:41:12.663Z,0.00
2018-07-31T00:42:12.648Z,0.00
2018-07-31T00:43:12.627Z,0.00
2018-07-31T00:44:12.603Z,0.00
2018-07-31T00:45:12.570Z,0.00
2018-07-31T00:46:12.547Z,0.00
2018-07-31T00:47:12.528Z,0.00
2018-07-31T00:48:12.507Z,0.00
2018-07-31T00:49:12.563Z,0.00
2018-07-31T00:50:12.465Z,0.00
2018-07-31T00:51:12.470Z,0.00
2018-07-31T00:52:12.411Z,0.00
2018-07-31T00:53:12.393Z,0.00
2018-07-31T00:54:12.371Z,0.00
2018-07-31T00:55:12.351Z,0.00
2018-07-31T00:56:12.335Z,0.00
2018-07-31T00:57:12.313Z,0.00
2018-07-31T00:58:12.363Z,0.00
2018-07-31T00:59:12.273Z,0.00
2018-07-31T01:00:12.242Z,0.00
2018-07-31T01:01:12.231Z,0.00
2018-07-31T01:02:12.201Z,0.00
2018-07-31T01:03:12.174Z,0.00
2018-07-31T01:04:12.153Z,0.00
2018-07-31T01:05:12.138Z,0.00
2018-07-31T01:06:12.124Z,0.00
2018-07-31T01:07:12.090Z,0.00
2018-07-31T01:08:12.074Z,0.00
2018-07-31T01:09:12.052Z,0.00
2018-07-31T01:10:12.023Z,0.00
2018-07-31T01:11:12.008Z,0.00
2018-07-31T01:12:12.013Z,0.00
2018-07-31T01:13:12.037Z,0.00
2018-07-31T01:14:11.929Z,0.00
2018-07-31T01:15:11.911Z,0.00
2018-07-31T01:16:11.894Z,0.00
2018-07-31T01:17:11.865Z,0.00
2018-07-31T01:18:11.853Z,0.00
2018-07-31T01:19:11.876Z,0.00
2018-07-31T01:20:11.886Z,0.00
2018-07-31T01:21:11.791Z,0.00
2018-07-31T01:22:11.754Z,0.00
2018-07-31T01:23:11.805Z,0.00
2018-07-31T01:24:11.714Z,0.00
2018-07-31T01:25:11.702Z,0.00
2018-07-31T01:26:11.662Z,0.00
2018-07-31T01:27:11.642Z,0.00
2018-07-31T01:28:11.679Z,0.00
2018-07-31T01:29:11.605Z,0.00
2018-07-31T01:30:11.607Z,0.00
2018-07-31T01:31:11.626Z,0.00
2018-07-31T01:32:11.533Z,0.00
2018-07-31T01:33:11.505Z,0.00
2018-07-31T01:34:11.492Z,0.00
2018-07-31T01:35:11.465Z,0.00
2018-07-31T01:36:11.443Z,0.00
2018-07-31T01:37:11.417Z,0.00
2018-07-31T01:38:11.482Z,0.00
2018-07-31T01:39:11.385Z,0.00
2018-07-31T01:40:11.432Z,0.00
2018-07-31T01:41:11.336Z,0.00
2018-07-31T01:42:11.309Z,0.00
2018-07-31T01:43:11.287Z,0.00
2018-07-31T01:44:11.258Z,0.00
2018-07-31T01:45:11.242Z,0.00
2018-07-31T01:46:11.218Z,0.00
2018-07-31T01:47:11.200Z,0.00
2018-07-31T01:48:11.181Z,0.00
2018-07-31T01:49:11.174Z,0.00
2018-07-31T01:50:11.129Z,0.00
2018-07-31T01:51:11.110Z,0.00
2018-07-31T01:52:11.086Z,0.00
2018-07-31T01:53:11.098Z,0.00
2018-07-31T01:54:11.047Z,0.00
2018-07-31T01:55:11.058Z,0.00
2018-07-31T01:56:11.086Z,0.00
2018-07-31T01:57:11.066Z,0.00
2018-07-31T01:58:11.020Z,0.00
2018-07-31T01:59:10.993Z,0.00
2018-07-31T02:00:10.915Z,0.00
2018-07-31T02:01:10.971Z,0.00
2018-07-31T02:02:10.914Z,0.00
2018-07-31T02:03:10.835Z,0.00
2018-07-31T02:04:10.816Z,0.00
2018-07-31T02:05:10.796Z,0.00
2018-07-31T02:06:10.828Z,0.00
2018-07-31T02:07:10.753Z,0.00
2018-07-31T02:08:10.737Z,0.00
2018-07-31T02:09:10.823Z,0.00
2018-07-31T02:10:10.724Z,0.00
2018-07-31T02:11:10.664Z,0.00
2018-07-31T02:12:10.647Z,0.00
2018-07-31T02:13:10.761Z,0.00
2018-07-31T02:14:10.599Z,0.00
2018-07-31T02:15:10.573Z,0.00
2018-07-31T02:16:10.562Z,0.00
2018-07-31T02:17:10.573Z,0.00
2018-07-31T02:18:10.529Z,0.00
2018-07-31T02:19:10.498Z,0.00
2018-07-31T02:20:10.487Z,0.00
2018-07-31T02:21:10.458Z,0.00
2018-07-31T02:22:10.417Z,0.00
2018-07-31T02:23:10.393Z,0.00
2018-07-31T02:24:10.360Z,0.00
2018-07-31T02:25:10.345Z,0.00
2018-07-31T02:26:10.333Z,0.00
2018-07-31T02:27:10.448Z,0.00
2018-07-31T02:28:10.339Z,0.00
2018-07-31T02:29:10.261Z,0.00
2018-07-31T02:30:10.266Z,0.00
2018-07-31T02:31:10.295Z,0.00
2018-07-31T02:32:10.194Z,0.00
2018-07-31T02:33:10.216Z,0.00
2018-07-31T02:34:10.178Z,0.00
2018-07-31T02:35:10.138Z,0.00
2018-07-31T02:36:10.103Z,0.00
2018-07-31T02:37:10.212Z,0.00
2018-07-31T02:38:10.046Z,0.00
2018-07-31T02:39:10.034Z,0.00
2018-07-31T02:40:10.046Z,0.00
2018-07-31T02:41:09.971Z,0.00
2018-07-31T02:42:09.951Z,0.00
2018-07-31T02:43:09.955Z,0.00
2018-07-31T02:44:09.944Z,0.00
2018-07-31T02:45:09.897Z,0.00
2018-07-31T02:46:09.871Z,0.00
2018-07-31T02:47:09.853Z,0.00
2018-07-31T02:48:09.818Z,0.00
2018-07-31T02:49:09.789Z,0.00
2018-07-31T02:50:09.773Z,0.00
2018-07-31T02:51:09.885Z,0.00
2018-07-31T02:52:09.726Z,0.00
2018-07-31T02:53:09.706Z,0.00
2018-07-31T02:54:09.794Z,0.00
2018-07-31T02:55:09.657Z,0.00
2018-07-31T02:56:09.632Z,0.00
2018-07-31T02:57:09.618Z,0.00
2018-07-31T02:58:09.734Z,0.00
2018-07-31T02:59:09.657Z,0.00
2018-07-31T03:00:09.610Z,0.00
2018-07-31T03:01:09.586Z,0.00
2018-07-31T03:02:09.497Z,0.00
2018-07-31T03:03:09.474Z,0.00
2018-07-31T03:04:09.468Z,0.00
2018-07-31T03:05:09.432Z,0.00
2018-07-31T03:06:09.399Z,0.00
2018-07-31T03:07:09.439Z,0.00
2018-07-31T03:08:09.395Z,0.00
2018-07-31T03:09:09.340Z,0.00
2018-07-31T03:10:09.321Z,0.00
2018-07-31T03:11:09.296Z,0.00
2018-07-31T03:12:09.260Z,0.00
2018-07-31T03:13:09.325Z,0.00
2018-07-31T03:14:09.240Z,0.00
2018-07-31T03:15:09.269Z,0.00
2018-07-31T03:16:09.181Z,0.00
2018-07-31T03:17:09.156Z,0.00
2018-07-31T03:18:09.211Z,0.00
2018-07-31T03:19:09.111Z,0.00
2018-07-31T03:20:09.084Z,4.00
2018-07-31T03:21:09.064Z,4.00
2018-07-31T03:22:09.041Z,0.00
2018-07-31T03:23:09.023Z,0.00
2018-07-31T03:24:08.993Z,4.00
2018-07-31T03:25:08.986Z,4.00
2018-07-31T03:26:08.941Z,4.00
2018-07-31T03:27:08.922Z,4.00
2018-07-31T03:28:08.937Z,4.00
2018-07-31T03:29:08.939Z,8.00
2018-07-31T03:30:08.860Z,8.00
2018-07-31T03:31:08.902Z,8.00
2018-07-31T03:32:08.806Z,12.00
2018-07-31T03:33:08.785Z,12.00
2018-07-31T03:34:08.764Z,16.00
2018-07-31T03:35:08.739Z,12.00
2018-07-31T03:36:08.719Z,16.00
2018-07-31T03:37:08.699Z,20.00
2018-07-31T03:38:08.732Z,24.00
2018-07-31T03:39:08.662Z,24.00
2018-07-31T03:40:08.620Z,24.00
2018-07-31T03:41:08.711Z,32.00
2018-07-31T03:42:08.586Z,36.00
2018-07-31T03:43:08.560Z,40.00
2018-07-31T03:44:08.562Z,48.00
2018-07-31T03:45:08.507Z,48.00
2018-07-31T03:46:08.489Z,56.00
2018-07-31T03:47:08.458Z,64.00
2018-07-31T03:48:08.443Z,72.00
2018-07-31T03:49:08.428Z,84.00
2018-07-31T03:50:08.479Z,96.00
2018-07-31T03:51:08.390Z,108.00
2018-07-31T03:52:08.359Z,112.00
2018-07-31T03:53:08.404Z,124.00
2018-07-31T03:54:08.301Z,136.00
2018-07-31T03:55:08.293Z,148.00
2018-07-31T03:56:08.280Z,160.00
2018-07-31T03:57:08.233Z,172.00
2018-07-31T03:58:08.227Z,192.00
2018-07-31T03:59:08.180Z,208.00
2018-07-31T04:00:08.303Z,224.00
2018-07-31T04:01:08.136Z,240.00
2018-07-31T04:02:08.171Z,264.00
2018-07-31T04:03:08.095Z,284.00
2018-07-31T04:04:08.066Z,304.00
2018-07-31T04:05:08.154Z,324.00
2018-07-31T04:06:08.061Z,340.00
2018-07-31T04:07:08.062Z,352.00
2018-07-31T04:08:07.977Z,372.00
2018-07-31T04:09:08.029Z,388.00
2018-07-31T04:10:07.926Z,408.00
2018-07-31T04:11:07.903Z,428.00
2018-07-31T04:12:07.881Z,444.00
2018-07-31T04:13:07.859Z,460.00
2018-07-31T04:14:07.839Z,476.00
2018-07-31T04:15:07.824Z,492.00
2018-07-31T04:16:26.483Z,512.00
2018-07-31T04:18:07.197Z,552.00
2018-07-31T04:19:06.643Z,580.00
2018-07-31T04:21:09.997Z,636.00
2018-07-31T04:22:08.984Z,668.00
2018-07-31T04:24:10.642Z,724.00
2018-07-31T04:25:10.688Z,752.00
2018-07-31T04:26:10.395Z,768.00
2018-07-31T04:27:31.530Z,788.00
2018-07-31T04:28:10.365Z,804.00
2018-07-31T04:29:10.062Z,824.00
2018-07-31T04:30:10.058Z,840.00
2018-07-31T04:33:12.063Z,908.00
2018-07-31T04:34:12.503Z,936.00
2018-07-31T04:36:33.534Z,984.00
2018-07-31T04:37:14.942Z,1012.00
2018-07-31T04:39:19.147Z,1072.00
2018-07-31T04:40:18.970Z,1100.00
2018-07-31T04:42:26.023Z,1164.00
2018-07-31T04:43:26.016Z,1192.00
2018-07-31T04:45:31.795Z,1244.00
2018-07-31T04:46:31.443Z,1268.00
2018-07-31T04:48:35.163Z,1308.00
2018-07-31T04:49:34.707Z,1328.00
2018-07-31T04:51:37.022Z,1364.00
2018-07-31T04:52:36.486Z,1384.00
2018-07-31T04:54:43.288Z,1432.00
2018-07-31T04:55:42.912Z,1460.00
2018-07-31T04:57:42.247Z,1480.00
2018-07-31T05:00:03.702Z,1516.00
2018-07-31T05:01:02.964Z,1536.00
2018-07-31T05:02:58.335Z,1544.00
2018-07-31T05:03:57.073Z,1528.00
2018-07-31T05:06:05.689Z,1532.00
2018-07-31T05:07:07.066Z,1540.00
2018-07-31T05:09:27.245Z,1616.00
2018-07-31T05:10:06.951Z,1656.00
2018-07-31T05:12:09.169Z,1832.00
2018-07-31T05:13:09.556Z,1868.00
2018-07-31T05:16:58.523Z,2056.00
2018-07-31T05:17:58.639Z,2120.00
2018-07-31T05:20:08.001Z,2236.00
2018-07-31T05:21:07.793Z,2368.00
2018-07-31T05:23:14.512Z,2548.00
2018-07-31T05:24:14.089Z,2636.00
2018-07-31T05:26:24.652Z,2752.00
2018-07-31T05:27:24.832Z,2788.00
2018-07-31T05:29:29.122Z,2796.00
2018-07-31T05:30:28.665Z,2700.00
2018-07-31T05:32:34.619Z,2800.00
2018-07-31T05:33:37.162Z,2712.00
2018-07-31T05:34:33.541Z,2784.00
2018-07-31T05:35:35.278Z,2796.00
2018-07-31T05:36:33.217Z,2808.00
2018-07-31T05:37:33.179Z,2824.00
2018-07-31T05:38:33.202Z,2812.00
2018-07-31T05:39:35.078Z,2784.00
2018-07-31T05:40:33.093Z,2752.00
2018-07-31T05:41:33.210Z,2740.00
2018-07-31T05:42:33.376Z,2692.00
2018-07-31T05:43:33.439Z,2664.00
2018-07-31T05:44:49.320Z,2620.00
2018-07-31T05:46:43.272Z,2584.00
2018-07-31T05:47:42.684Z,2580.00
2018-07-31T05:48:42.567Z,2636.00
2018-07-31T05:49:42.714Z,2676.00
2018-07-31T05:50:42.455Z,2792.00
2018-07-31T05:51:45.193Z,2888.00
2018-07-31T05:52:44.678Z,3008.00
2018-07-31T05:54:01.594Z,3104.00
2018-07-31T05:55:44.069Z,3228.00
2018-07-31T05:56:43.813Z,3260.00
2018-07-31T05:58:47.328Z,3232.00
2018-07-31T05:59:46.071Z,3328.00
2018-07-31T06:01:43.170Z,3296.00
2018-07-31T06:02:42.821Z,3436.00
2018-07-31T06:04:54.717Z,3428.00
2018-07-31T06:05:52.819Z,3484.00
2018-07-31T06:07:50.746Z,3388.00
2018-07-31T06:08:50.898Z,3316.00
2018-07-31T06:10:55.729Z,3224.00
2018-07-31T06:11:55.569Z,3168.00
2018-07-31T06:14:00.859Z,3096.00
2018-07-31T06:15:00.963Z,2984.00
2018-07-31T06:17:07.273Z,2820.00
2018-07-31T06:18:06.729Z,2880.00
2018-07-31T06:20:16.424Z,2944.00
2018-07-31T06:21:16.112Z,3000.00
2018-07-31T06:23:19.909Z,2960.00
2018-07-31T06:24:19.893Z,2980.00
2018-07-31T06:26:20.117Z,3156.00
2018-07-31T06:27:20.252Z,3272.00
2018-07-31T06:29:24.896Z,3620.00
2018-07-31T06:30:24.877Z,3780.00
2018-07-31T06:31:26.582Z,3924.00
2018-07-31T06:32:24.677Z,4048.00
2018-07-31T06:33:24.571Z,4144.00
2018-07-31T06:34:24.566Z,4208.00
2018-07-31T06:35:24.529Z,4268.00
2018-07-31T06:36:26.343Z,4284.00
2018-07-31T06:37:24.481Z,4324.00
2018-07-31T06:38:24.463Z,4368.00
2018-07-31T06:39:24.444Z,4364.00
2018-07-31T06:40:24.472Z,4332.00
2018-07-31T06:41:24.401Z,4308.00
2018-07-31T06:42:24.364Z,4284.00
2018-07-31T06:43:24.400Z,4204.00
2018-07-31T06:44:24.358Z,4096.00
2018-07-31T06:45:24.341Z,4024.00
2018-07-31T06:46:24.293Z,4024.00
2018-07-31T06:47:24.254Z,3988.00
2018-07-31T06:48:24.242Z,3912.00
2018-07-31T06:49:24.268Z,3828.00
2018-07-31T06:50:24.201Z,3700.00
2018-07-31T06:51:25.815Z,3476.00
2018-07-31T06:52:24.149Z,3304.00
2018-07-31T06:53:24.151Z,3276.00
2018-07-31T06:54:24.103Z,3648.00
2018-07-31T06:55:24.099Z,3848.00
2018-07-31T06:56:24.073Z,3608.00
2018-07-31T06:57:24.093Z,3796.00
2018-07-31T06:58:24.019Z,3844.00
2018-07-31T06:59:25.813Z,4056.00
2018-07-31T07:00:23.986Z,4052.00
2018-07-31T07:01:23.956Z,3900.00
2018-07-31T07:02:25.808Z,4024.00
2018-07-31T07:03:23.973Z,4136.00
2018-07-31T07:04:23.922Z,4496.00
2018-07-31T07:05:23.869Z,4524.00
2018-07-31T07:06:23.850Z,4472.00
2018-07-31T07:07:23.824Z,4596.00
2018-07-31T07:08:23.816Z,4900.00
2018-07-31T07:09:25.311Z,5000.00
2018-07-31T07:10:23.769Z,5244.00
2018-07-31T07:11:23.751Z,5516.00
2018-07-31T07:12:23.713Z,5412.00
2018-07-31T07:13:23.703Z,5596.00
2018-07-31T07:14:23.687Z,6064.00
2018-07-31T07:15:23.666Z,5120.00
2018-07-31T07:16:23.701Z,5164.00
2018-07-31T07:17:23.614Z,5156.00
2018-07-31T07:18:23.658Z,5448.00
2018-07-31T07:19:23.586Z,5468.00
2018-07-31T07:20:23.653Z,5156.00
2018-07-31T07:21:23.528Z,5056.00
2018-07-31T07:22:25.311Z,5276.00
2018-07-31T07:23:23.491Z,5764.00
2018-07-31T07:24:23.461Z,5548.00
2018-07-31T07:25:23.494Z,5704.00
2018-07-31T07:26:23.451Z,5412.00
2018-07-31T07:27:23.414Z,5480.00
2018-07-31T07:28:24.331Z,5544.00
2018-07-31T07:29:23.362Z,5688.00
2018-07-31T07:30:36.170Z,5740.00
2018-07-31T07:32:27.092Z,5396.00
2018-07-31T07:33:27.373Z,5752.00
2018-07-31T07:35:34.865Z,5920.00
2018-07-31T07:36:34.917Z,6368.00
2018-07-31T07:38:39.375Z,6536.00
2018-07-31T07:39:38.981Z,6508.00
2018-07-31T07:41:48.154Z,7232.00
2018-07-31T07:42:47.930Z,6544.00
2018-07-31T07:44:51.460Z,6764.00
2018-07-31T07:45:51.051Z,6416.00
2018-07-31T07:46:51.196Z,6304.00
2018-07-31T07:47:51.102Z,6076.00
2018-07-31T07:48:50.778Z,6276.00
2018-07-31T07:49:50.703Z,6320.00
2018-07-31T07:50:50.672Z,5992.00
2018-07-31T07:51:50.811Z,5800.00
2018-07-31T07:52:50.647Z,5632.00
2018-07-31T07:53:50.696Z,5276.00
2018-07-31T07:54:50.586Z,5120.00
2018-07-31T07:55:50.568Z,5228.00
2018-07-31T07:56:50.545Z,5272.00
2018-07-31T07:57:50.606Z,5260.00
2018-07-31T07:58:50.507Z,5184.00
2018-07-31T07:59:50.486Z,5316.00
2018-07-31T08:00:50.468Z,5436.00
2018-07-31T08:01:50.453Z,5180.00
2018-07-31T08:02:50.429Z,5152.00
2018-07-31T08:03:50.427Z,4804.00
2018-07-31T08:04:50.387Z,5156.00
2018-07-31T08:05:50.481Z,4852.00
2018-07-31T08:06:50.345Z,4788.00
2018-07-31T08:07:50.331Z,4716.00
2018-07-31T08:08:50.317Z,4684.00
2018-07-31T08:09:50.335Z,4676.00
2018-07-31T08:10:50.263Z,4572.00
2018-07-31T08:11:50.244Z,4480.00
2018-07-31T08:12:50.261Z,4540.00
2018-07-31T08:13:50.212Z,4456.00
2018-07-31T08:14:50.177Z,4464.00
2018-07-31T08:15:50.222Z,4552.00
2018-07-31T08:16:50.172Z,4600.00
2018-07-31T08:18:08.897Z,4616.00
2018-07-31T08:19:54.712Z,4980.00
2018-07-31T08:20:55.056Z,5024.00
2018-07-31T08:22:58.619Z,4696.00
2018-07-31T08:23:58.608Z,5168.00
2018-07-31T08:26:04.554Z,5532.00
2018-07-31T08:27:04.477Z,5940.00
2018-07-31T08:29:07.734Z,6932.00
2018-07-31T08:30:07.750Z,7088.00
2018-07-31T08:32:26.993Z,8004.00
2018-07-31T08:33:26.800Z,7888.00
2018-07-31T08:35:48.580Z,8344.00
2018-07-31T08:36:48.538Z,8268.00
2018-07-31T08:38:59.157Z,8024.00
2018-07-31T08:39:59.059Z,8196.00
2018-07-31T08:42:09.339Z,7792.00
2018-07-31T08:43:09.445Z,8100.00
2018-07-31T08:45:11.090Z,6896.00
2018-07-31T08:46:11.027Z,6896.00
2018-07-31T08:48:22.078Z,7420.00
2018-07-31T08:49:21.761Z,7340.00
2018-07-31T08:51:30.227Z,6584.00
2018-07-31T08:52:30.154Z,6752.00
2018-07-31T08:53:30.136Z,6256.00
2018-07-31T08:54:29.945Z,6196.00
2018-07-31T08:55:29.826Z,6244.00
2018-07-31T08:56:29.821Z,7680.00
2018-07-31T08:57:29.799Z,7532.00
2018-07-31T08:58:29.778Z,7364.00
2018-07-31T08:59:29.763Z,7768.00
2018-07-31T09:00:29.742Z,7864.00
2018-07-31T09:01:29.848Z,8008.00
2018-07-31T09:02:29.696Z,8260.00
2018-07-31T09:03:29.689Z,8208.00
2018-07-31T09:04:29.670Z,8936.00
2018-07-31T09:05:31.288Z,8992.00
2018-07-31T09:06:29.625Z,8376.00
2018-07-31T09:07:29.603Z,8676.00
2018-07-31T09:08:29.702Z,9464.00
2018-07-31T09:09:29.577Z,10048.00
2018-07-31T09:10:29.544Z,11100.00
2018-07-31T09:11:29.536Z,9844.00
2018-07-31T09:12:31.035Z,10976.00
2018-07-31T09:13:29.498Z,10964.00
2018-07-31T09:14:29.467Z,11360.00
2018-07-31T09:15:29.449Z,11412.00
2018-07-31T09:16:29.436Z,11384.00
2018-07-31T09:17:29.449Z,9636.00
2018-07-31T09:18:29.401Z,10484.00
2018-07-31T09:19:29.376Z,11128.00
2018-07-31T09:20:29.360Z,11096.00
2018-07-31T09:21:29.360Z,10284.00
2018-07-31T09:22:29.330Z,9688.00
2018-07-31T09:23:29.369Z,10488.00
2018-07-31T09:24:29.314Z,9288.00
2018-07-31T09:25:29.287Z,9228.00
2018-07-31T09:26:29.253Z,9128.00
2018-07-31T09:27:29.239Z,9448.00
2018-07-31T09:28:29.219Z,9216.00
2018-07-31T09:29:29.203Z,9240.00
2018-07-31T09:30:29.262Z,9240.00
2018-07-31T09:31:29.174Z,9064.00
2018-07-31T09:32:29.148Z,9728.00
2018-07-31T09:33:29.141Z,9652.00
2018-07-31T09:34:29.119Z,9044.00
2018-07-31T09:35:29.188Z,8816.00
2018-07-31T09:36:29.141Z,8608.00
2018-07-31T09:37:29.053Z,8544.00
2018-07-31T09:38:29.046Z,8472.00
2018-07-31T09:39:29.025Z,8488.00
2018-07-31T09:40:29.006Z,8604.00
2018-07-31T09:41:28.989Z,8864.00
2018-07-31T09:42:28.979Z,8348.00
2018-07-31T09:43:28.960Z,8000.00
2018-07-31T09:44:28.935Z,7840.00
2018-07-31T09:45:28.916Z,7876.00
2018-07-31T09:46:28.892Z,7688.00
2018-07-31T09:47:28.889Z,7292.00
2018-07-31T09:48:28.898Z,6692.00
2018-07-31T09:49:28.847Z,6348.00
2018-07-31T09:50:28.827Z,6108.00
2018-07-31T09:51:28.815Z,7232.00
2018-07-31T09:52:28.829Z,6312.00
2018-07-31T09:53:28.769Z,6588.00
2018-07-31T09:54:28.753Z,5768.00
2018-07-31T09:55:28.746Z,5200.00
2018-07-31T09:56:28.716Z,5124.00
2018-07-31T09:57:28.694Z,5012.00
2018-07-31T09:58:29.356Z,4792.00
2018-07-31T09:59:28.684Z,5300.00
2018-07-31T10:00:28.636Z,4732.00
2018-07-31T10:03:29.150Z,5440.00
2018-07-31T10:04:29.152Z,5808.00
2018-07-31T10:06:31.906Z,6744.00
2018-07-31T10:07:31.884Z,7624.00
2018-07-31T10:09:35.073Z,6804.00
2018-07-31T10:10:35.048Z,7028.00
2018-07-31T10:12:35.454Z,6956.00
2018-07-31T10:13:35.236Z,6416.00
2018-07-31T10:15:39.423Z,7092.00
2018-07-31T10:16:40.011Z,6464.00
2018-07-31T10:18:50.058Z,7192.00
2018-07-31T10:19:49.803Z,7224.00
2018-07-31T10:21:53.687Z,7552.00
2018-07-31T10:22:52.874Z,7440.00
2018-07-31T10:24:58.727Z,6412.00
2018-07-31T10:25:58.960Z,6480.00
2018-07-31T10:28:02.517Z,8660.00
2018-07-31T10:29:02.692Z,6440.00
2018-07-31T10:31:18.427Z,6036.00
2018-07-31T10:32:18.351Z,7348.00
2018-07-31T10:34:21.221Z,8208.00
2018-07-31T10:35:21.156Z,7256.00
2018-07-31T10:37:26.229Z,5720.00
2018-07-31T10:38:25.705Z,5484.00
2018-07-31T10:40:30.122Z,5776.00
2018-07-31T10:41:30.131Z,6592.00
2018-07-31T10:43:34.313Z,5984.00
2018-07-31T10:44:34.537Z,6660.00
2018-07-31T10:46:50.501Z,6448.00
2018-07-31T10:47:50.166Z,7020.00
2018-07-31T10:49:56.220Z,9252.00
2018-07-31T10:50:55.957Z,7936.00
2018-07-31T10:53:01.913Z,8164.00
2018-07-31T10:54:01.801Z,8200.00
2018-07-31T10:56:06.464Z,9036.00
2018-07-31T10:57:06.090Z,7868.00
2018-07-31T10:59:09.114Z,8948.00
2018-07-31T11:00:09.036Z,7912.00
2018-07-31T11:02:13.538Z,7008.00
2018-07-31T11:03:13.468Z,5716.00
2018-07-31T11:05:19.381Z,7864.00
2018-07-31T11:06:19.303Z,8336.00
2018-07-31T11:09:02.954Z,9500.00
2018-07-31T11:09:29.583Z,9664.00
2018-07-31T11:11:32.451Z,8264.00
2018-07-31T11:12:32.454Z,8076.00
2018-07-31T11:14:36.195Z,5992.00
2018-07-31T11:15:36.116Z,6460.00
2018-07-31T11:17:42.136Z,5748.00
2018-07-31T11:18:41.875Z,6932.00
2018-07-31T11:19:41.943Z,5488.00
2018-07-31T11:20:41.753Z,5272.00
2018-07-31T11:21:41.734Z,5432.00
2018-07-31T11:22:41.741Z,7064.00
2018-07-31T11:23:41.687Z,7460.00
2018-07-31T11:24:41.676Z,7680.00
2018-07-31T11:25:41.666Z,7276.00
2018-07-31T11:26:41.662Z,7176.00
2018-07-31T11:27:41.629Z,7064.00
2018-07-31T11:28:41.639Z,7144.00
2018-07-31T11:29:41.588Z,7180.00
2018-07-31T11:30:41.625Z,6340.00
2018-07-31T11:31:41.562Z,5608.00
2018-07-31T11:32:41.545Z,5876.00
2018-07-31T11:33:41.528Z,6108.00
2018-07-31T11:34:41.523Z,6248.00
2018-07-31T11:35:41.512Z,6088.00
2018-07-31T11:36:41.463Z,6264.00
2018-07-31T11:37:41.454Z,6672.00
2018-07-31T11:38:41.447Z,8288.00
2018-07-31T11:39:41.430Z,9164.00
2018-07-31T11:40:41.401Z,8944.00
2018-07-31T11:41:41.382Z,8908.00
2018-07-31T11:42:41.363Z,8656.00
2018-07-31T11:43:41.345Z,6892.00
2018-07-31T11:45:01.070Z,6804.00
2018-07-31T11:47:04.196Z,9316.00
2018-07-31T11:48:04.118Z,9928.00
2018-07-31T11:50:10.035Z,11740.00
2018-07-31T11:51:10.126Z,12844.00
2018-07-31T11:53:14.322Z,14028.00
2018-07-31T11:54:14.325Z,14588.00
2018-07-31T11:56:18.715Z,15280.00
2018-07-31T11:57:18.877Z,14400.00
2018-07-31T11:59:23.248Z,11340.00
2018-07-31T12:00:23.133Z,10896.00
2018-07-31T12:02:36.002Z,10384.00
2018-07-31T12:03:35.974Z,10716.00
2018-07-31T12:05:39.038Z,9300.00
2018-07-31T12:06:38.936Z,8656.00
2018-07-31T12:08:40.252Z,9000.00
2018-07-31T12:09:40.149Z,9560.00
2018-07-31T12:11:36.079Z,10392.00
2018-07-31T12:12:36.070Z,10980.00
2018-07-31T12:14:44.092Z,10684.00
2018-07-31T12:15:43.990Z,10440.00
2018-07-31T12:17:51.858Z,9240.00
2018-07-31T12:18:51.860Z,10132.00
2018-07-31T12:21:02.131Z,8356.00
2018-07-31T12:22:02.090Z,8448.00
2018-07-31T12:24:24.121Z,10444.00
2018-07-31T12:25:24.020Z,13992.00
2018-07-31T12:27:28.278Z,12908.00
2018-07-31T12:28:28.313Z,13596.00
2018-07-31T12:30:25.418Z,10496.00
2018-07-31T12:31:25.300Z,13552.00
2018-07-31T12:33:30.871Z,11100.00
2018-07-31T12:34:29.181Z,9300.00
2018-07-31T12:36:30.880Z,13608.00
2018-07-31T12:37:30.654Z,12744.00
2018-07-31T12:39:25.672Z,12960.00
2018-07-31T12:40:25.674Z,12964.00
2018-07-31T12:42:53.446Z,12900.00
2018-07-31T12:43:53.320Z,11032.00
2018-07-31T12:45:50.196Z,14084.00
2018-07-31T12:46:50.268Z,13600.00
2018-07-31T12:48:55.289Z,8416.00
2018-07-31T12:49:54.584Z,8820.00
2018-07-31T12:51:59.813Z,14700.00
2018-07-31T12:52:59.630Z,14416.00
2018-07-31T12:55:10.063Z,14816.00
2018-07-31T12:56:09.844Z,15032.00
2018-07-31T12:58:13.632Z,13916.00
2018-07-31T12:59:13.314Z,13828.00
2018-07-31T13:01:21.529Z,13248.00
2018-07-31T13:02:21.162Z,14060.00
2018-07-31T13:04:24.458Z,9048.00
2018-07-31T13:05:24.441Z,8624.00
2018-07-31T13:07:58.294Z,9476.00
2018-07-31T13:08:28.076Z,14604.00
2018-07-31T13:10:53.054Z,7612.00
2018-07-31T13:13:23.570Z,14988.00
2018-07-31T13:14:23.838Z,15472.00
2018-07-31T13:16:27.170Z,11248.00
2018-07-31T13:17:27.722Z,12088.00
2018-07-31T13:19:33.183Z,12292.00
2018-07-31T13:20:32.665Z,19040.00
2018-07-31T13:22:36.955Z,18112.00
2018-07-31T13:23:36.966Z,17376.00
2018-07-31T13:25:41.050Z,15620.00
2018-07-31T13:26:40.327Z,11004.00
2018-07-31T13:28:44.942Z,7796.00
2018-07-31T13:29:44.773Z,8240.00
2018-07-31T13:31:44.663Z,9360.00
2018-07-31T13:32:44.777Z,10240.00
2018-07-31T13:34:49.554Z,9744.00
2018-07-31T13:35:49.179Z,9824.00
2018-07-31T13:37:54.455Z,14360.00
2018-07-31T13:38:54.062Z,19392.00
2018-07-31T13:40:58.463Z,19776.00
2018-07-31T13:41:58.210Z,20128.00
2018-07-31T13:44:01.268Z,18976.00
2018-07-31T13:45:00.959Z,17792.00
2018-07-31T13:46:00.824Z,18016.00
2018-07-31T13:47:00.412Z,8652.00
2018-07-31T13:48:00.413Z,8596.00
2018-07-31T13:49:00.390Z,9236.00
2018-07-31T13:50:00.383Z,15528.00
2018-07-31T13:51:00.370Z,17888.00
2018-07-31T13:52:00.348Z,17728.00
2018-07-31T13:53:00.411Z,17216.00
2018-07-31T13:54:00.359Z,17216.00
2018-07-31T13:55:00.353Z,17568.00
2018-07-31T13:56:00.366Z,17024.00
2018-07-31T13:57:00.297Z,18208.00
2018-07-31T13:58:00.291Z,18656.00
2018-07-31T13:59:00.281Z,18912.00
2018-07-31T14:00:00.306Z,19168.00
2018-07-31T14:01:00.253Z,19008.00
2018-07-31T14:02:00.255Z,19232.00
2018-07-31T14:03:00.240Z,20064.00
2018-07-31T14:04:00.222Z,20960.00
2018-07-31T14:05:00.216Z,21568.00
2018-07-31T14:06:00.204Z,22528.00
2018-07-31T14:07:00.204Z,22880.00
2018-07-31T14:08:00.189Z,23808.00
2018-07-31T14:09:00.177Z,7720.00
2018-07-31T14:10:00.165Z,8592.00
2018-07-31T14:11:00.159Z,25984.00
2018-07-31T14:12:00.139Z,8556.00
2018-07-31T14:13:00.141Z,33056.00
2018-07-31T14:14:00.121Z,35520.00
2018-07-31T14:15:00.115Z,38688.00
2018-07-31T14:16:00.097Z,41344.00
2018-07-31T14:17:00.098Z,44960.00
2018-07-31T14:18:00.093Z,48608.00
2018-07-31T14:19:00.075Z,51488.00
2018-07-31T14:20:00.060Z,54976.00
2018-07-31T14:21:00.068Z,57600.00
2018-07-31T14:22:00.089Z,58624.00
2018-07-31T14:23:00.023Z,59968.00
2018-07-31T14:24:00.021Z,60928.00
2018-07-31T14:25:00.016Z,58592.00
2018-07-31T14:26:00.002Z,59360.00
2018-07-31T14:26:59.994Z,60928.00
2018-07-31T14:27:59.984Z,58848.00
2018-07-31T14:28:59.968Z,55008.00
2018-07-31T14:29:59.974Z,52416.00
2018-07-31T14:30:59.959Z,50496.00
2018-07-31T14:31:59.959Z,48512.00
2018-07-31T14:32:59.938Z,38016.00
2018-07-31T14:34:02.928Z,7724.00
2018-07-31T14:34:59.918Z,42016.00
2018-07-31T14:35:59.918Z,41184.00
2018-07-31T14:36:59.951Z,39680.00
2018-07-31T14:37:59.901Z,38176.00
2018-07-31T14:38:59.883Z,37184.00
2018-07-31T14:39:59.880Z,36032.00
2018-07-31T14:40:59.862Z,35392.00